createdAt,value
2023-04-02T00:01:04.272Z,100927.16
2023-04-02T00:03:42.303Z,100929.75
2023-04-02T00:06:34.190Z,100929.78
2023-04-02T00:09:14.909Z,100933.28
2023-04-02T00:11:43.572Z,100948.09
2023-04-02T00:14:29.932Z,100949.88
2023-04-02T00:17:01.292Z,100952.53
2023-04-02T00:19:58.733Z,100962.06
2023-04-02T00:22:31.691Z,100963.06
2023-04-02T00:25:03.998Z,100969.97
2023-04-02T00:27:32.333Z,100970.00
2023-04-02T00:30:00.094Z,100984.88
2023-04-02T00:32:32.754Z,100990.06
2023-04-02T00:35:01.462Z,100990.94
2023-04-02T00:37:39.009Z,100989.16
2023-04-02T00:40:26.777Z,100995.28
2023-04-02T00:42:58.568Z,101002.31
2023-04-02T00:45:33.285Z,101000.56
2023-04-02T00:48:31.857Z,100994.56
2023-04-02T00:51:15.902Z,101011.97
2023-04-02T00:53:48.057Z,101011.16
2023-04-02T00:56:31.052Z,101018.13
2023-04-02T00:58:58.756Z,101027.75
2023-04-02T01:01:36.633Z,101029.53
2023-04-02T01:04:06.090Z,101034.78
2023-04-02T01:06:38.079Z,101041.75
2023-04-02T01:09:31.752Z,101053.03
2023-04-02T01:12:29.676Z,101050.44
2023-04-02T01:15:21.078Z,101050.44
2023-04-02T01:18:20.774Z,101059.19
2023-04-02T01:21:42.136Z,101057.44
2023-04-02T01:24:14.303Z,101066.19
2023-04-02T01:27:02.960Z,101073.19
2023-04-02T01:29:42.143Z,101074.94
2023-04-02T01:32:14.491Z,101078.44
2023-04-02T01:34:45.529Z,101085.47
2023-04-02T01:37:40.208Z,101095.06
2023-04-02T01:40:38.695Z,101098.56
2023-04-02T01:43:31.348Z,101123.88
2023-04-02T01:46:23.357Z,101112.56
2023-04-02T01:48:51.976Z,101116.03
2023-04-02T01:51:36.010Z,101108.22
2023-04-02T01:54:07.697Z,101127.38
2023-04-02T01:56:35.724Z,101128.25
2023-04-02T01:59:06.012Z,101132.63
2023-04-02T02:01:49.154Z,101130.03
2023-04-02T02:04:17.742Z,101132.66
2023-04-02T02:06:47.168Z,101142.22
2023-04-02T02:09:27.133Z,101146.56
2023-04-02T02:11:56.639Z,101145.69
2023-04-02T02:14:27.428Z,101162.28
2023-04-02T02:17:00.114Z,101158.81
2023-04-02T02:19:52.175Z,101168.38
2023-04-02T02:22:31.771Z,101169.28
2023-04-02T02:25:05.375Z,101186.72
2023-04-02T02:28:00.230Z,101176.22
2023-04-02T02:30:29.790Z,101198.03
2023-04-02T02:33:14.305Z,101203.25
2023-04-02T02:35:50.925Z,101194.53
2023-04-02T02:39:23.077Z,101211.13
2023-04-02T02:42:00.935Z,101213.75
2023-04-02T02:44:35.294Z,101219.00
2023-04-02T02:47:11.774Z,101220.75
2023-04-02T02:49:46.190Z,101231.19
2023-04-02T02:52:25.510Z,101226.84
2023-04-02T02:55:12.054Z,101232.94
2023-04-02T02:58:31.336Z,101242.56
2023-04-02T03:01:20.999Z,101234.72
2023-04-02T03:03:54.941Z,101250.44
2023-04-02T03:06:24.519Z,101258.25
2023-04-02T03:09:40.544Z,101267.84
2023-04-02T03:12:45.655Z,101272.19
2023-04-02T03:15:41.709Z,101273.06
2023-04-02T03:18:41.497Z,101277.44
2023-04-02T03:21:35.155Z,101285.25
2023-04-02T03:24:14.934Z,101287.00
2023-04-02T03:27:16.566Z,101289.63
2023-04-02T03:30:03.911Z,101292.25
2023-04-02T03:32:40.357Z,101294.88
2023-04-02T03:35:28.048Z,101303.56
2023-04-02T03:38:06.511Z,101319.25
2023-04-02T03:40:52.877Z,101319.25
2023-04-02T03:43:29.484Z,101331.44
2023-04-02T03:46:13.239Z,101334.06
2023-04-02T03:48:47.966Z,101340.16
2023-04-02T03:51:37.248Z,101341.88
2023-04-02T03:54:05.626Z,101351.47
2023-04-02T03:56:40.386Z,101358.44
2023-04-02T03:59:41.492Z,101371.47
2023-04-02T04:02:27.033Z,101374.09
2023-04-02T04:04:57.427Z,101380.16
2023-04-02T04:07:41.377Z,101387.13
2023-04-02T04:10:19.393Z,101391.44
2023-04-02T04:13:14.993Z,101394.03
2023-04-02T04:16:11.888Z,101414.09
2023-04-02T04:19:22.406Z,101423.69
2023-04-02T04:22:19.020Z,101430.59
2023-04-02T04:25:30.503Z,101426.22
2023-04-02T04:28:42.516Z,101433.19
2023-04-02T04:31:49.753Z,101439.28
2023-04-02T04:34:53.542Z,101448.81
2023-04-02T04:37:53.756Z,101455.75
2023-04-02T04:40:56.133Z,101457.47
2023-04-02T04:44:17.849Z,101459.22
2023-04-02T04:47:31.164Z,101467.94
2023-04-02T04:50:38.928Z,101479.25
2023-04-02T04:53:29.978Z,101484.44
2023-04-02T04:56:26.780Z,101490.59
2023-04-02T04:59:32.317Z,101504.47
2023-04-02T05:02:45.483Z,101513.16
2023-04-02T05:05:40.678Z,101515.75
2023-04-02T05:08:37.551Z,101527.91
2023-04-02T05:11:21.609Z,101534.94
2023-04-02T05:14:03.563Z,101540.09
2023-04-02T05:16:47.355Z,101541.84
2023-04-02T05:19:32.092Z,101554.00
2023-04-02T05:22:12.875Z,101559.16
2023-04-02T05:25:20.142Z,101561.81
2023-04-02T05:28:10.425Z,101564.38
2023-04-02T05:30:46.692Z,101573.09
2023-04-02T05:33:32.895Z,101573.97
2023-04-02T05:36:11.685Z,101575.72
2023-04-02T05:38:47.712Z,101588.72
2023-04-02T05:41:38.439Z,101595.66
2023-04-02T05:44:28.586Z,101599.16
2023-04-02T05:47:10.381Z,101601.75
2023-04-02T05:49:50.967Z,101610.47
2023-04-02T05:52:35.797Z,101614.84
2023-04-02T05:55:12.372Z,101627.88
2023-04-02T05:58:13.401Z,101629.59
2023-04-02T06:00:42.095Z,101635.59
2023-04-02T06:03:27.525Z,101637.34
2023-04-02T06:06:03.793Z,101652.09
2023-04-02T06:08:43.581Z,101655.56
2023-04-02T06:11:20.188Z,101658.16
2023-04-02T06:13:47.426Z,101663.41
2023-04-02T06:16:16.706Z,101657.38
2023-04-02T06:18:44.613Z,101670.53
2023-04-02T06:21:18.064Z,101669.69
2023-04-02T06:24:03.210Z,101685.34
2023-04-02T06:26:44.914Z,101697.47
2023-04-02T06:29:39.962Z,101707.06
2023-04-02T06:32:12.902Z,101707.03
2023-04-02T06:34:43.634Z,101712.16
2023-04-02T06:37:32.675Z,101719.13
2023-04-02T06:40:33.921Z,101735.63
2023-04-02T06:43:33.636Z,101740.91
2023-04-02T06:46:34.517Z,101749.53
2023-04-02T06:49:48.203Z,101750.34
2023-04-02T06:52:28.428Z,101755.56
2023-04-02T06:54:57.237Z,101767.69
2023-04-02T06:57:25.076Z,101773.81
2023-04-02T06:59:53.818Z,101775.56
2023-04-02T07:02:39.911Z,101787.78
2023-04-02T07:05:11.589Z,101787.75
2023-04-02T07:07:43.842Z,101796.41
2023-04-02T07:10:13.071Z,101805.19
2023-04-02T07:12:40.732Z,101802.63
2023-04-02T07:15:14.990Z,101817.44
2023-04-02T07:17:43.557Z,101817.44
2023-04-02T07:20:30.356Z,101832.19
2023-04-02T07:23:01.353Z,101833.16
2023-04-02T07:25:28.538Z,101840.03
2023-04-02T07:27:56.724Z,101840.94
2023-04-02T07:30:23.837Z,101840.97
2023-04-02T07:32:50.956Z,101845.41
2023-04-02T07:35:18.139Z,101851.53
2023-04-02T07:37:45.713Z,101865.44
2023-04-02T07:40:21.927Z,101857.66
2023-04-02T07:42:49.230Z,101858.41
2023-04-02T07:45:16.579Z,101863.66
2023-04-02T07:47:43.605Z,101872.38
2023-04-02T07:50:11.174Z,101877.69
2023-04-02T07:52:42.681Z,101880.34
2023-04-02T07:55:12.889Z,101883.75
2023-04-02T07:57:48.464Z,101882.84
2023-04-02T08:00:16.303Z,101889.91
2023-04-02T08:02:43.370Z,101886.53
2023-04-02T08:05:10.952Z,101893.63
2023-04-02T08:07:39.146Z,101897.94
2023-04-02T08:10:10.863Z,101907.53
2023-04-02T08:12:38.576Z,101904.81
2023-04-02T08:15:07.018Z,101912.59
2023-04-02T08:17:34.216Z,101918.75
2023-04-02T08:20:01.905Z,101926.66
2023-04-02T08:22:29.707Z,101933.59
2023-04-02T08:24:57.114Z,101932.69
2023-04-02T08:27:25.426Z,101933.53
2023-04-02T08:29:52.634Z,101944.03
2023-04-02T08:32:19.686Z,101951.03
2023-04-02T08:34:46.746Z,101948.34
2023-04-02T08:37:14.438Z,101961.63
2023-04-02T08:39:41.529Z,101967.78
2023-04-02T08:42:41.001Z,101970.38
2023-04-02T08:45:41.227Z,101965.19
2023-04-02T08:48:12.959Z,101979.13
2023-04-02T08:50:44.294Z,101974.91
2023-04-02T08:53:21.184Z,101987.13
2023-04-02T08:56:05.721Z,101988.88
2023-04-02T08:59:12.726Z,102005.47
2023-04-02T09:02:05.982Z,102024.78
2023-04-02T09:04:34.590Z,102023.06
2023-04-02T09:07:01.676Z,102029.16
2023-04-02T09:09:28.897Z,102023.88
2023-04-02T09:12:04.368Z,102026.66
2023-04-02T09:14:52.883Z,102034.53
2023-04-02T09:17:24.456Z,102031.00
2023-04-02T09:19:58.846Z,102037.19
2023-04-02T09:22:31.665Z,102040.91
2023-04-02T09:25:02.014Z,102045.34
2023-04-02T09:27:33.436Z,102043.63
2023-04-02T09:30:29.468Z,102048.84
2023-04-02T09:33:02.689Z,102064.56
2023-04-02T09:35:32.760Z,102072.41
2023-04-02T09:38:21.605Z,102072.34
2023-04-02T09:40:58.454Z,102073.19
2023-04-02T09:43:37.748Z,102078.47
2023-04-02T09:46:19.083Z,102070.69
2023-04-02T09:48:58.424Z,102075.91
2023-04-02T09:51:31.741Z,102095.03
2023-04-02T09:54:02.062Z,102084.66
2023-04-02T09:56:35.583Z,102084.66
2023-04-02T09:59:21.943Z,102098.66
2023-04-02T10:01:55.348Z,102103.97
2023-04-02T10:04:37.283Z,102117.09
2023-04-02T10:07:06.556Z,102114.38
2023-04-02T10:09:38.424Z,102118.75
2023-04-02T10:12:13.874Z,102129.38
2023-04-02T10:14:48.400Z,102145.06
2023-04-02T10:17:25.152Z,102142.44
2023-04-02T10:20:06.168Z,102139.84
2023-04-02T10:22:33.518Z,102146.13
2023-04-02T10:25:01.538Z,102149.72
2023-04-02T10:27:57.301Z,102154.19
2023-04-02T10:30:50.033Z,102159.41
2023-04-02T10:33:51.660Z,102171.72
2023-04-02T10:36:51.476Z,102169.97
2023-04-02T10:39:48.515Z,102172.72
2023-04-02T10:42:29.068Z,102187.72
2023-04-02T10:45:18.257Z,102192.97
2023-04-02T10:47:57.309Z,102189.44
2023-04-02T10:50:37.572Z,102191.31
2023-04-02T10:53:33.382Z,102195.78
2023-04-02T10:56:09.990Z,102201.91
2023-04-02T10:58:55.593Z,102189.72
2023-04-02T11:01:31.197Z,102207.19
2023-04-02T11:04:14.288Z,102191.41
2023-04-02T11:07:03.470Z,102196.66
2023-04-02T11:09:45.353Z,102201.91
2023-04-02T11:12:41.538Z,102210.66
2023-04-02T11:15:19.140Z,102207.94
2023-04-02T11:17:47.755Z,102220.09
2023-04-02T11:20:57.246Z,102219.28
2023-04-02T11:23:30.401Z,102225.34
2023-04-02T11:26:37.639Z,102222.69
2023-04-02T11:29:29.632Z,102229.63
2023-04-02T11:32:20.672Z,102231.34
2023-04-02T11:35:06.402Z,102233.97
2023-04-02T11:37:43.277Z,102238.47
2023-04-02T11:40:16.302Z,102242.81
2023-04-02T11:42:45.810Z,102241.91
2023-04-02T11:45:24.630Z,102254.19
2023-04-02T11:48:08.049Z,102255.03
2023-04-02T11:50:46.449Z,102269.09
2023-04-02T11:53:17.072Z,102266.47
2023-04-02T11:56:18.243Z,102262.19
2023-04-02T11:59:16.475Z,102274.44
2023-04-02T12:02:18.454Z,102274.38
2023-04-02T12:04:57.404Z,102271.88
2023-04-02T12:08:05.228Z,102284.22
2023-04-02T12:10:51.317Z,102286.94
2023-04-02T12:13:21.943Z,102284.38
2023-04-02T12:15:52.522Z,102297.56
2023-04-02T12:18:24.419Z,102288.19
2023-04-02T12:20:56.280Z,102297.94
2023-04-02T12:23:36.989Z,102287.50
2023-04-02T12:26:27.772Z,102285.88
2023-04-02T12:28:56.260Z,102288.50
2023-04-02T12:31:25.325Z,102289.41
2023-04-02T12:33:53.557Z,102286.78
2023-04-02T12:36:23.675Z,102299.91
2023-04-02T12:38:54.382Z,102295.53
2023-04-02T12:41:33.364Z,102299.03
2023-04-02T12:44:11.502Z,102309.56
2023-04-02T12:46:40.051Z,102321.69
2023-04-02T12:49:30.982Z,102319.97
2023-04-02T12:52:01.851Z,102318.19
2023-04-02T12:54:35.596Z,102315.59
2023-04-02T12:57:27.648Z,102322.66
2023-04-02T13:00:21.041Z,102307.81
2023-04-02T13:03:06.572Z,102302.53
2023-04-02T13:05:54.840Z,102306.94
2023-04-02T13:08:40.712Z,102308.66
2023-04-02T13:11:08.606Z,102314.78
2023-04-02T13:13:41.238Z,102309.53
2023-04-02T13:16:35.074Z,102309.47
2023-04-02T13:19:17.400Z,102315.59
2023-04-02T13:21:46.178Z,102306.75
2023-04-02T13:24:22.493Z,102315.56
2023-04-02T13:26:53.604Z,102324.38
2023-04-02T13:29:31.440Z,102317.41
2023-04-02T13:32:02.550Z,102325.28
2023-04-02T13:34:30.202Z,102311.19
2023-04-02T13:36:58.857Z,102311.16
2023-04-02T13:39:27.092Z,102315.53
2023-04-02T13:42:01.222Z,102310.31
2023-04-02T13:44:32.705Z,102313.03
2023-04-02T13:47:01.195Z,102316.53
2023-04-02T13:49:28.923Z,102311.28
2023-04-02T13:52:05.540Z,102310.44
2023-04-02T13:54:58.851Z,102319.22
2023-04-02T13:57:25.982Z,102320.06
2023-04-02T13:59:52.979Z,102325.31
2023-04-02T14:02:25.180Z,102326.19
2023-04-02T14:05:41.890Z,102328.84
2023-04-02T14:08:35.900Z,102334.09
2023-04-02T14:11:21.560Z,102332.28
2023-04-02T14:14:19.492Z,102333.19
2023-04-02T14:17:07.053Z,102341.09
2023-04-02T14:20:20.309Z,102334.06
2023-04-02T14:23:00.051Z,102339.31
2023-04-02T14:25:53.950Z,102338.38
2023-04-02T14:28:57.460Z,102351.56
2023-04-02T14:32:03.447Z,102350.69
2023-04-02T14:34:41.963Z,102350.72
2023-04-02T14:38:13.891Z,102356.03
2023-04-02T14:40:56.871Z,102355.13
2023-04-02T14:43:31.386Z,102359.50
2023-04-02T14:46:03.063Z,102357.78
2023-04-02T14:48:48.188Z,102359.50
2023-04-02T14:51:30.826Z,102354.22
2023-04-02T14:54:38.618Z,102362.97
2023-04-02T14:57:18.635Z,102365.59
2023-04-02T15:00:09.766Z,102370.81
2023-04-02T15:02:47.188Z,102369.97
2023-04-02T15:05:42.103Z,102365.59
2023-04-02T15:08:30.024Z,102360.31
2023-04-02T15:11:08.567Z,102368.19
2023-04-02T15:13:49.912Z,102366.41
2023-04-02T15:16:23.602Z,102375.16
2023-04-02T15:18:53.131Z,102382.22
2023-04-02T15:21:36.967Z,102383.97
2023-04-02T15:24:54.316Z,102372.59
2023-04-02T15:28:00.365Z,102391.00
2023-04-02T15:30:52.385Z,102387.50
2023-04-02T15:33:49.532Z,102384.00
2023-04-02T15:36:35.320Z,102385.75
2023-04-02T15:39:34.576Z,102384.84
2023-04-02T15:42:29.496Z,102388.41
2023-04-02T15:45:11.698Z,102387.53
2023-04-02T15:47:54.645Z,102394.53
2023-04-02T15:50:46.795Z,102398.94
2023-04-02T15:54:18.334Z,102396.31
2023-04-02T15:56:57.206Z,102405.97
2023-04-02T15:59:42.834Z,102406.88
2023-04-02T16:02:47.706Z,102413.03
2023-04-02T16:05:42.459Z,102416.53
2023-04-02T16:08:45.695Z,102421.81
2023-04-02T16:11:15.990Z,102419.19
2023-04-02T16:13:43.471Z,102424.44
2023-04-02T16:16:29.844Z,102427.06
2023-04-02T16:19:16.614Z,102433.22
2023-04-02T16:22:12.151Z,102438.50
2023-04-02T16:24:39.111Z,102447.25
2023-04-02T16:27:17.731Z,102441.13
2023-04-02T16:30:16.854Z,102451.66
2023-04-02T16:33:26.847Z,102452.53
2023-04-02T16:36:14.251Z,102465.69
2023-04-02T16:39:15.149Z,102461.28
2023-04-02T16:42:28.649Z,102470.94
2023-04-02T16:45:41.943Z,102468.28
2023-04-02T16:48:30.416Z,102477.97
2023-04-02T16:51:23.107Z,102485.00
2023-04-02T16:54:12.208Z,102492.00
2023-04-02T16:56:57.517Z,102493.72
2023-04-02T17:00:12.805Z,102496.38
2023-04-02T17:03:17.886Z,102498.09
2023-04-02T17:06:05.776Z,102506.88
2023-04-02T17:09:14.483Z,102501.63
2023-04-02T17:11:44.857Z,102501.59
2023-04-02T17:14:34.724Z,102509.50
2023-04-02T17:17:04.492Z,102516.50
2023-04-02T17:19:32.739Z,102520.91
2023-04-02T17:22:04.444Z,102530.53
2023-04-02T17:24:42.608Z,102525.22
2023-04-02T17:27:25.616Z,102525.19
2023-04-02T17:30:02.074Z,102528.66
2023-04-02T17:32:33.689Z,102526.84
2023-04-02T17:35:18.787Z,102543.38
2023-04-02T17:38:01.584Z,102544.19
2023-04-02T17:40:43.068Z,102543.22
2023-04-02T17:43:30.944Z,102560.69
2023-04-02T17:46:14.723Z,102559.75
2023-04-02T17:48:48.595Z,102564.03
2023-04-02T17:51:38.378Z,102569.16
2023-04-02T17:54:47.695Z,102565.56
2023-04-02T17:58:11.286Z,102578.59
2023-04-02T18:00:58.838Z,102581.03
2023-04-02T18:03:49.157Z,102581.75
2023-04-02T18:06:28.100Z,102578.94
2023-04-02T18:09:59.901Z,102580.53
2023-04-02T18:12:50.511Z,102588.16
2023-04-02T18:15:49.838Z,102592.34
2023-04-02T18:18:19.680Z,102601.75
2023-04-02T18:21:07.623Z,102604.22
2023-04-02T18:24:02.079Z,102609.25
2023-04-02T18:26:58.405Z,102616.03
2023-04-02T18:29:56.655Z,102622.81
2023-04-02T18:32:46.820Z,102626.94
2023-04-02T18:35:35.455Z,102624.19
2023-04-02T18:38:55.006Z,102637.13
2023-04-02T18:41:49.498Z,102638.63
2023-04-02T18:44:34.632Z,102648.09
2023-04-02T18:47:23.933Z,102651.38
2023-04-02T18:50:17.821Z,102656.41
2023-04-02T18:52:45.924Z,102656.22
2023-04-02T18:55:27.863Z,102651.72
2023-04-02T18:58:06.310Z,102662.09
2023-04-02T19:00:39.992Z,102657.59
2023-04-02T19:03:29.196Z,102656.59
2023-04-02T19:06:05.435Z,102666.88
2023-04-02T19:08:47.080Z,102669.28
2023-04-02T19:11:28.571Z,102669.09
2023-04-02T19:14:01.157Z,102678.47
2023-04-02T19:16:52.514Z,102679.94
2023-04-02T19:19:38.069Z,102680.47
2023-04-02T19:22:54.566Z,102689.69
2023-04-02T19:26:07.006Z,102691.97
2023-04-02T19:29:04.196Z,102695.22
2023-04-02T19:32:29.457Z,102701.88
2023-04-02T19:35:17.849Z,102711.13
2023-04-02T19:38:12.856Z,102708.34
2023-04-02T19:40:42.913Z,102715.09
2023-04-02T19:43:11.279Z,102714.97
2023-04-02T19:45:46.880Z,102715.69
2023-04-02T19:48:18.790Z,102718.09
2023-04-02T19:50:47.087Z,102719.66
2023-04-02T19:53:15.313Z,102725.56
2023-04-02T19:55:43.867Z,102732.34
2023-04-02T19:58:23.384Z,102731.34
2023-04-02T20:00:50.419Z,102734.66
2023-04-02T20:03:17.444Z,102733.56
2023-04-02T20:05:44.474Z,102739.47
2023-04-02T20:08:11.982Z,102743.66
2023-04-02T20:10:39.387Z,102742.63
2023-04-02T20:13:06.472Z,102746.81
2023-04-02T20:15:34.191Z,102741.41
2023-04-02T20:18:01.919Z,102745.59
2023-04-02T20:20:28.932Z,102747.16
2023-04-02T20:22:55.954Z,102752.22
2023-04-02T20:25:23.069Z,102749.47
2023-04-02T20:27:50.048Z,102754.47
2023-04-02T20:30:17.204Z,102753.44
2023-04-02T20:32:44.272Z,102761.09
2023-04-02T20:35:11.400Z,102753.13
2023-04-02T20:37:40.871Z,102756.50
2023-04-02T20:40:09.969Z,102759.81
2023-04-02T20:42:37.072Z,102766.66
2023-04-02T20:45:06.168Z,102762.16
2023-04-02T20:47:33.294Z,102768.16
2023-04-02T20:50:00.343Z,102770.59
2023-04-02T20:52:30.036Z,102774.78
2023-04-02T20:54:57.450Z,102772.00
2023-04-02T20:57:26.079Z,102777.88
2023-04-02T20:59:54.589Z,102780.38
2023-04-02T21:02:21.654Z,102779.41
2023-04-02T21:04:48.721Z,102784.44
2023-04-02T21:07:15.997Z,102784.41
2023-04-02T21:09:42.918Z,102794.66
2023-04-02T21:12:09.933Z,102798.91
2023-04-02T21:14:39.034Z,102799.56
2023-04-02T21:17:07.649Z,102802.81
2023-04-02T21:19:35.589Z,102800.91
2023-04-02T21:22:03.397Z,102807.84
2023-04-02T21:24:30.444Z,102805.25
2023-04-02T21:26:57.420Z,102808.72
2023-04-02T21:29:24.456Z,102809.50
2023-04-02T21:31:52.447Z,102809.31
2023-04-02T21:34:19.504Z,102818.78
2023-04-02T21:36:48.722Z,102810.94
2023-04-02T21:39:22.197Z,102815.13
2023-04-02T21:41:51.947Z,102810.63
2023-04-02T21:44:22.856Z,102814.03
2023-04-02T21:46:53.026Z,102809.63
2023-04-02T21:49:23.163Z,102820.84
2023-04-02T21:51:51.636Z,102825.03
2023-04-02T21:54:19.282Z,102822.28
2023-04-02T21:56:47.617Z,102816.94
2023-04-02T21:59:16.834Z,102818.63
2023-04-02T22:01:51.116Z,102822.03
2023-04-02T22:04:24.756Z,102825.38
2023-04-02T22:06:52.775Z,102829.66
2023-04-02T22:09:24.036Z,102832.00
2023-04-02T22:11:55.345Z,102830.84
2023-04-02T22:14:23.374Z,102828.88
2023-04-02T22:16:50.880Z,102833.03
2023-04-02T22:19:18.179Z,102832.84
2023-04-02T22:21:46.319Z,102836.13
2023-04-02T22:24:16.362Z,102832.47
2023-04-02T22:26:44.535Z,102837.66
2023-04-02T22:29:12.269Z,102835.88
2023-04-02T22:31:39.472Z,102843.63
2023-04-02T22:34:07.330Z,102840.88
2023-04-02T22:36:35.282Z,102851.97
2023-04-02T22:39:05.651Z,102853.63
2023-04-02T22:41:33.325Z,102860.47
2023-04-02T22:44:01.730Z,102869.22
2023-04-02T22:46:30.171Z,102859.69
2023-04-02T22:48:57.430Z,102859.13
2023-04-02T22:51:27.613Z,102854.13
2023-04-02T22:53:55.917Z,102857.72
2023-04-02T22:56:28.610Z,102856.72
2023-04-02T22:58:55.920Z,102864.31
2023-04-02T23:01:31.106Z,102860.72
2023-04-02T23:03:58.584Z,102859.88
2023-04-02T23:06:26.539Z,102856.47
2023-04-02T23:08:53.615Z,102853.69
2023-04-02T23:11:24.846Z,102858.75
2023-04-02T23:13:56.653Z,102858.69
2023-04-02T23:16:26.990Z,102858.53
2023-04-02T23:18:56.144Z,102861.16
2023-04-02T23:21:24.054Z,102862.34
2023-04-02T23:23:51.484Z,102861.53
2023-04-02T23:26:23.116Z,102864.31
2023-04-02T23:28:51.425Z,102859.22
2023-04-02T23:31:22.052Z,102860.03
2023-04-02T23:33:51.327Z,102866.03
2023-04-02T23:36:28.741Z,102858.13
2023-04-02T23:39:01.223Z,102854.69
2023-04-02T23:41:29.996Z,102873.06
2023-04-02T23:43:58.317Z,102870.47
2023-04-02T23:46:25.883Z,102866.88
2023-04-02T23:48:54.465Z,102874.59
2023-04-02T23:51:22.751Z,102872.81
2023-04-02T23:53:51.608Z,102880.41
2023-04-02T23:56:19.865Z,102879.31
2023-04-02T23:58:46.855Z,102879.25
